createdAt,value
2023-01-17T00:01:52.791Z,20.00
2023-01-17T00:04:13.558Z,17.75
2023-01-17T00:06:34.119Z,21.38
2023-01-17T00:08:54.690Z,21.25
2023-01-17T00:10:58.335Z,19.20
2023-01-17T00:13:00.995Z,17.98
2023-01-17T00:15:03.561Z,19.95
2023-01-17T00:17:05.299Z,18.20
2023-01-17T00:19:26.156Z,17.67
2023-01-17T00:21:46.789Z,17.38
2023-01-17T00:24:07.755Z,17.02
2023-01-17T00:26:10.987Z,19.85
2023-01-17T00:28:13.138Z,20.13
2023-01-17T00:30:17.796Z,18.98
2023-01-17T00:32:20.015Z,16.70
2023-01-17T00:34:21.665Z,18.60
2023-01-17T00:36:23.757Z,19.83
2023-01-17T00:38:26.663Z,19.98
2023-01-17T00:40:28.450Z,23.50
2023-01-17T00:42:30.403Z,20.00
2023-01-17T00:44:50.515Z,22.58
2023-01-17T00:47:11.093Z,23.10
2023-01-17T00:49:31.439Z,22.83
2023-01-17T00:51:52.603Z,24.20
2023-01-17T00:54:12.941Z,24.42
2023-01-17T00:56:33.515Z,23.88
2023-01-17T00:58:53.987Z,25.70
2023-01-17T01:01:14.855Z,26.90
2023-01-17T01:03:35.468Z,29.75
2023-01-17T01:05:56.863Z,25.88
2023-01-17T01:08:17.391Z,31.70
2023-01-17T01:10:37.889Z,31.27
2023-01-17T01:12:58.392Z,31.50
2023-01-17T01:15:18.979Z,31.58
2023-01-17T01:17:39.138Z,33.65
2023-01-17T01:20:00.030Z,31.80
2023-01-17T01:22:20.273Z,30.98
2023-01-17T01:24:40.764Z,30.20
2023-01-17T01:27:01.263Z,31.17
2023-01-17T01:29:21.928Z,30.42
2023-01-17T01:31:42.228Z,31.20
2023-01-17T01:33:44.331Z,32.60
2023-01-17T01:35:53.703Z,32.05
2023-01-17T01:37:55.580Z,30.25
2023-01-17T01:39:57.683Z,29.08
2023-01-17T01:41:59.419Z,30.48
2023-01-17T01:44:01.477Z,30.02
2023-01-17T01:46:03.591Z,28.83
2023-01-17T01:48:20.195Z,31.52
2023-01-17T01:50:22.524Z,31.38
2023-01-17T01:52:25.783Z,28.58
2023-01-17T01:54:30.664Z,29.42
2023-01-17T01:56:32.876Z,29.20
2023-01-17T01:58:34.896Z,27.75
2023-01-17T02:00:38.360Z,27.60
2023-01-17T02:02:40.790Z,27.48
2023-01-17T02:04:43.964Z,29.88
2023-01-17T02:06:51.107Z,30.25
2023-01-17T02:08:53.450Z,26.33
2023-01-17T02:10:56.120Z,30.13
2023-01-17T02:15:00.118Z,25.25
2023-01-17T02:17:21.246Z,26.02
2023-01-17T02:19:29.229Z,27.08
2023-01-17T02:21:41.775Z,26.33
2023-01-17T02:23:55.538Z,22.98
2023-01-17T02:26:10.289Z,25.83
2023-01-17T02:28:24.418Z,25.40
2023-01-17T02:30:26.105Z,26.73
2023-01-17T02:32:38.195Z,28.95
2023-01-17T02:34:44.520Z,26.13
2023-01-17T02:36:49.103Z,24.67
2023-01-17T02:39:12.574Z,25.88
2023-01-17T02:41:21.059Z,22.98
2023-01-17T02:43:23.903Z,26.17
2023-01-17T02:45:25.729Z,25.05
2023-01-17T02:47:29.157Z,27.17
2023-01-17T02:49:31.902Z,24.23
2023-01-17T02:53:51.220Z,23.33
2023-01-17T02:56:16.252Z,25.40
2023-01-17T02:58:21.483Z,24.67
2023-01-17T03:00:38.067Z,24.08
2023-01-17T03:02:52.422Z,28.08
2023-01-17T03:04:58.657Z,27.23
2023-01-17T03:07:02.934Z,28.17
2023-01-17T03:09:04.739Z,25.67
2023-01-17T03:11:08.024Z,24.45
2023-01-17T03:13:09.760Z,22.33
2023-01-17T03:15:13.123Z,24.00
2023-01-17T03:17:14.842Z,26.90
2023-01-17T03:19:16.985Z,25.20
2023-01-17T03:21:18.718Z,24.25
2023-01-17T03:23:20.996Z,24.83
2023-01-17T03:25:23.852Z,23.45
2023-01-17T03:27:25.975Z,26.58
2023-01-17T03:29:27.744Z,22.88
2023-01-17T03:31:29.896Z,25.80
2023-01-17T03:33:32.588Z,25.25
2023-01-17T03:37:36.524Z,23.00
2023-01-17T03:39:38.688Z,23.83
2023-01-17T03:41:40.499Z,23.15
2023-01-17T03:43:42.608Z,25.10
2023-01-17T03:45:44.681Z,22.45
2023-01-17T03:47:47.018Z,21.52
2023-01-17T03:49:48.918Z,24.42
2023-01-17T03:51:51.037Z,21.42
2023-01-17T03:53:52.861Z,22.38
2023-01-17T03:55:54.898Z,24.88
2023-01-17T03:57:57.017Z,25.00
2023-01-17T03:59:59.088Z,24.10
2023-01-17T04:02:01.108Z,24.00
2023-01-17T04:04:03.270Z,21.33
2023-01-17T04:06:05.269Z,22.83
2023-01-17T04:08:07.438Z,24.60
2023-01-17T04:10:09.465Z,21.17
2023-01-17T04:12:11.565Z,23.27
2023-01-17T04:14:13.286Z,21.85
2023-01-17T04:16:16.980Z,22.43
2023-01-17T04:18:20.245Z,20.45
2023-01-17T04:20:48.557Z,25.73
2023-01-17T04:22:50.227Z,23.23
2023-01-17T04:24:52.302Z,27.43
2023-01-17T04:26:54.015Z,28.08
2023-01-17T04:28:56.117Z,27.07
2023-01-17T04:30:59.216Z,31.60
2023-01-17T04:33:01.355Z,26.85
2023-01-17T04:35:04.809Z,22.75
2023-01-17T04:37:07.100Z,20.63
2023-01-17T04:39:08.915Z,21.83
2023-01-17T04:41:11.193Z,23.73
2023-01-17T04:43:12.885Z,21.17
2023-01-17T04:45:15.587Z,22.87
2023-01-17T04:47:17.315Z,22.65
2023-01-17T04:49:19.524Z,23.23
2023-01-17T04:51:21.197Z,22.40
2023-01-17T04:53:23.298Z,24.43
2023-01-17T04:55:25.060Z,20.00
2023-01-17T04:57:27.205Z,22.23
2023-01-17T04:59:28.945Z,23.02
2023-01-17T05:01:31.174Z,20.23
2023-01-17T05:03:33.342Z,20.60
2023-01-17T05:05:35.410Z,22.95
2023-01-17T05:07:37.176Z,23.00
2023-01-17T05:09:39.234Z,23.83
2023-01-17T05:11:40.958Z,22.05
2023-01-17T05:13:43.052Z,21.17
2023-01-17T05:15:45.002Z,19.65
2023-01-17T05:17:47.046Z,24.45
2023-01-17T05:19:48.765Z,22.77
2023-01-17T05:21:50.828Z,22.03
2023-01-17T05:23:52.560Z,22.13
2023-01-17T05:25:54.697Z,21.07
2023-01-17T05:27:56.751Z,21.40
2023-01-17T05:29:58.772Z,22.13
2023-01-17T05:32:00.479Z,20.15
2023-01-17T05:34:02.939Z,21.47
2023-01-17T05:36:06.085Z,24.45
2023-01-17T05:38:12.267Z,20.27
2023-01-17T05:40:14.009Z,22.70
2023-01-17T05:42:16.067Z,21.60
2023-01-17T05:44:17.763Z,23.77
2023-01-17T05:46:19.919Z,23.67
2023-01-17T05:48:21.716Z,20.83
2023-01-17T05:50:28.631Z,19.35
2023-01-17T05:52:30.379Z,21.67
2023-01-17T05:54:32.433Z,24.33
2023-01-17T05:56:34.277Z,22.92
2023-01-17T05:58:36.531Z,22.10
2023-01-17T06:00:38.485Z,23.10
2023-01-17T06:02:40.549Z,21.23
2023-01-17T06:04:42.776Z,23.90
2023-01-17T06:06:44.825Z,24.53
2023-01-17T06:08:46.574Z,23.15
2023-01-17T06:10:48.640Z,24.60
2023-01-17T06:12:50.896Z,24.98
2023-01-17T06:14:52.632Z,24.63
2023-01-17T06:16:54.822Z,27.77
2023-01-17T06:18:56.468Z,28.45
2023-01-17T06:20:58.567Z,23.60
2023-01-17T06:23:01.530Z,25.48
2023-01-17T06:27:05.316Z,29.00
2023-01-17T06:29:07.077Z,23.63
2023-01-17T06:31:09.539Z,23.02
2023-01-17T06:33:11.884Z,25.17
2023-01-17T06:35:14.082Z,21.98
2023-01-17T06:37:15.768Z,20.98
2023-01-17T06:39:17.774Z,27.60
2023-01-17T06:41:19.458Z,24.70
2023-01-17T06:43:21.492Z,28.10
2023-01-17T06:45:23.182Z,24.60
2023-01-17T06:47:25.289Z,27.80
2023-01-17T06:49:27.111Z,22.77
2023-01-17T06:51:29.360Z,28.38
2023-01-17T06:53:31.065Z,24.23
2023-01-17T06:55:34.022Z,21.47
2023-01-17T06:57:36.001Z,24.85
2023-01-17T06:59:37.851Z,28.00
2023-01-17T07:01:40.321Z,25.52
2023-01-17T07:03:42.074Z,31.80
2023-01-17T07:05:44.168Z,30.47
2023-01-17T07:07:46.012Z,22.45
2023-01-17T07:09:48.041Z,19.85
2023-01-17T07:11:51.904Z,22.02
2023-01-17T07:13:54.286Z,26.08
2023-01-17T07:15:56.294Z,23.57
2023-01-17T07:18:00.608Z,21.45
2023-01-17T07:20:02.461Z,22.20
2023-01-17T07:22:04.607Z,19.23
2023-01-17T07:24:06.898Z,22.38
2023-01-17T07:26:09.150Z,17.50
2023-01-17T07:28:11.019Z,17.70
2023-01-17T07:30:13.338Z,20.10
2023-01-17T07:32:15.159Z,18.70
2023-01-17T07:34:17.259Z,18.40
2023-01-17T07:36:18.999Z,17.65
2023-01-17T07:38:21.125Z,17.73
2023-01-17T07:40:22.896Z,15.45
2023-01-17T07:42:25.009Z,16.33
2023-01-17T07:44:27.160Z,17.33
2023-01-17T07:46:30.619Z,17.17
2023-01-17T07:48:32.493Z,23.75
2023-01-17T07:50:34.643Z,22.58
2023-01-17T07:52:36.697Z,22.53
2023-01-17T07:54:39.941Z,14.85
2023-01-17T07:56:45.593Z,24.83
2023-01-17T07:58:48.584Z,22.42
2023-01-17T08:00:50.423Z,19.83
2023-01-17T08:02:55.579Z,16.70
2023-01-17T08:04:57.265Z,16.52
2023-01-17T08:07:00.537Z,15.37
2023-01-17T08:09:02.284Z,18.85
2023-01-17T08:11:04.417Z,16.80
2023-01-17T08:13:06.095Z,15.85
2023-01-17T08:15:09.352Z,16.33
2023-01-17T08:19:13.213Z,14.40
2023-01-17T08:21:15.352Z,18.30
2023-01-17T08:23:17.539Z,16.80
2023-01-17T08:25:19.577Z,13.07
2023-01-17T08:27:23.047Z,14.30
2023-01-17T08:29:24.926Z,15.27
2023-01-17T08:31:27.974Z,16.05
2023-01-17T08:33:29.712Z,17.48
2023-01-17T08:35:31.785Z,14.82
2023-01-17T08:37:33.527Z,16.38
2023-01-17T08:39:35.640Z,19.23
2023-01-17T08:41:37.336Z,16.05
2023-01-17T08:43:39.424Z,15.73
2023-01-17T08:45:44.087Z,16.35
2023-01-17T08:47:46.168Z,15.13
2023-01-17T08:49:48.283Z,16.40
2023-01-17T08:51:52.318Z,16.02
2023-01-17T08:53:54.699Z,17.10
2023-01-17T08:56:00.523Z,17.50
2023-01-17T08:58:02.255Z,17.67
2023-01-17T09:00:04.425Z,18.67
2023-01-17T09:02:15.064Z,18.95
2023-01-17T09:04:17.227Z,16.83
2023-01-17T09:06:19.060Z,18.17
2023-01-17T09:08:21.183Z,15.90
2023-01-17T09:10:23.713Z,17.05
2023-01-17T09:12:26.040Z,18.77
2023-01-17T09:14:27.815Z,15.18
2023-01-17T09:16:29.958Z,15.03
2023-01-17T09:18:32.317Z,21.63
2023-01-17T09:20:34.534Z,18.98
2023-01-17T09:22:37.791Z,17.38
2023-01-17T09:24:40.020Z,15.43
2023-01-17T09:26:41.763Z,17.42
2023-01-17T09:28:43.869Z,14.27
2023-01-17T09:30:45.616Z,16.27
2023-01-17T09:32:54.537Z,17.63
2023-01-17T09:35:00.972Z,17.27
2023-01-17T09:37:03.184Z,16.35
2023-01-17T09:39:05.138Z,16.58
2023-01-17T09:41:27.950Z,16.10
2023-01-17T09:43:51.120Z,17.73
2023-01-17T09:45:53.399Z,16.42
2023-01-17T09:47:55.385Z,16.60
2023-01-17T09:50:00.914Z,14.00
2023-01-17T09:52:03.306Z,15.13
2023-01-17T09:54:05.834Z,13.63
2023-01-17T09:56:11.775Z,18.85
2023-01-17T09:58:19.551Z,23.98
2023-01-17T10:00:36.833Z,19.33
2023-01-17T10:02:44.659Z,20.38
2023-01-17T10:04:55.659Z,20.48
2023-01-17T10:07:15.704Z,16.52
2023-01-17T10:09:20.511Z,22.90
2023-01-17T10:11:25.346Z,20.38
2023-01-17T10:13:27.052Z,18.27
2023-01-17T10:15:32.293Z,18.48
2023-01-17T10:17:36.393Z,16.25
2023-01-17T10:19:49.069Z,16.40
2023-01-17T10:21:59.150Z,19.58
2023-01-17T10:24:19.651Z,16.17
2023-01-17T10:26:25.481Z,19.13
2023-01-17T10:28:27.138Z,17.63
2023-01-17T10:30:29.180Z,13.55
2023-01-17T10:32:33.507Z,15.30
2023-01-17T10:34:46.272Z,18.42
2023-01-17T10:36:54.401Z,17.23
2023-01-17T10:39:14.630Z,17.83
2023-01-17T10:41:16.312Z,17.58
2023-01-17T10:43:18.300Z,18.47
2023-01-17T10:45:28.404Z,16.88
2023-01-17T10:47:33.267Z,18.20
2023-01-17T10:49:37.150Z,18.65
2023-01-17T10:52:00.044Z,18.92
2023-01-17T10:54:12.433Z,16.03
2023-01-17T10:56:15.694Z,15.77
2023-01-17T11:00:40.165Z,18.45
2023-01-17T11:02:44.321Z,17.13
2023-01-17T11:04:49.146Z,17.90
2023-01-17T11:07:10.192Z,18.50
2023-01-17T11:09:12.264Z,16.00
2023-01-17T11:11:13.991Z,15.32
2023-01-17T11:13:36.963Z,17.47
2023-01-17T11:15:39.896Z,20.67
2023-01-17T11:17:46.265Z,15.43
2023-01-17T11:19:51.296Z,18.95
2023-01-17T11:21:54.884Z,17.55
2023-01-17T11:23:57.321Z,19.50
2023-01-17T11:26:03.203Z,25.58
2023-01-17T11:28:18.081Z,17.90
2023-01-17T11:30:20.988Z,17.33
2023-01-17T11:32:22.717Z,19.70
2023-01-17T11:34:26.042Z,16.10
2023-01-17T11:36:28.575Z,17.63
2023-01-17T11:38:30.714Z,16.77
2023-01-17T11:40:41.507Z,19.38
2023-01-17T11:42:43.653Z,20.45
2023-01-17T11:44:45.418Z,20.60
2023-01-17T11:46:47.703Z,19.60
2023-01-17T11:48:50.989Z,21.30
2023-01-17T11:50:56.150Z,37.65
2023-01-17T11:53:14.185Z,21.10
2023-01-17T11:55:16.166Z,20.80
2023-01-17T11:57:21.341Z,22.13
2023-01-17T11:59:31.553Z,18.40
2023-01-17T12:01:55.809Z,19.23
2023-01-17T12:04:08.310Z,21.73
2023-01-17T12:06:15.049Z,16.92
2023-01-17T12:08:16.723Z,19.88
2023-01-17T12:10:24.620Z,32.53
2023-01-17T12:12:45.177Z,19.52
2023-01-17T12:15:08.027Z,21.70
2023-01-17T12:17:16.752Z,21.40
2023-01-17T12:19:33.744Z,18.27
2023-01-17T12:22:00.289Z,25.67
2023-01-17T12:24:26.260Z,23.90
2023-01-17T12:26:42.036Z,24.70
2023-01-17T12:29:07.118Z,23.40
2023-01-17T12:31:09.192Z,24.02
2023-01-17T12:33:25.799Z,21.40
2023-01-17T12:35:32.019Z,26.85
2023-01-17T12:37:39.024Z,27.77
2023-01-17T12:39:43.302Z,28.27
2023-01-17T12:41:50.930Z,26.17
2023-01-17T12:43:58.081Z,23.67
2023-01-17T12:46:03.719Z,28.35
2023-01-17T12:48:10.292Z,23.17
2023-01-17T12:50:21.360Z,26.70
2023-01-17T12:52:35.665Z,26.08
2023-01-17T12:54:42.614Z,24.38
2023-01-17T12:56:50.402Z,30.25
2023-01-17T12:58:59.397Z,24.92
2023-01-17T13:01:04.565Z,24.27
2023-01-17T13:03:18.087Z,23.77
2023-01-17T13:05:30.992Z,23.10
2023-01-17T13:07:53.775Z,26.23
2023-01-17T13:10:00.251Z,23.87
2023-01-17T13:12:07.786Z,24.50
2023-01-17T13:14:10.253Z,25.85
2023-01-17T13:16:21.600Z,26.27
2023-01-17T13:18:29.684Z,23.92
2023-01-17T13:20:45.115Z,24.95
2023-01-17T13:22:47.295Z,23.95
2023-01-17T13:25:01.659Z,29.73
2023-01-17T13:27:18.588Z,23.67
2023-01-17T13:29:26.996Z,24.65
2023-01-17T13:31:55.210Z,25.48
2023-01-17T13:34:23.600Z,23.88
2023-01-17T13:36:34.747Z,22.33
2023-01-17T13:38:55.132Z,22.27
2023-01-17T13:40:58.685Z,23.88
2023-01-17T13:43:01.775Z,25.15
2023-01-17T13:45:08.531Z,25.58
2023-01-17T13:47:10.555Z,27.20
2023-01-17T13:49:37.193Z,30.73
2023-01-17T13:51:57.867Z,24.10
2023-01-17T13:53:59.675Z,25.52
2023-01-17T13:56:12.974Z,24.35
2023-01-17T13:58:27.428Z,28.60
2023-01-17T14:00:29.122Z,25.50
2023-01-17T14:02:34.044Z,27.00
2023-01-17T14:04:55.342Z,28.30
2023-01-17T14:06:59.488Z,29.00
2023-01-17T14:09:03.219Z,26.30
2023-01-17T14:11:07.461Z,25.73
2023-01-17T14:13:29.515Z,28.58
2023-01-17T14:15:33.527Z,27.90
2023-01-17T14:17:37.351Z,31.88
2023-01-17T14:19:39.461Z,32.47
2023-01-17T14:21:41.230Z,39.03
2023-01-17T14:23:48.543Z,31.52
2023-01-17T14:25:50.883Z,27.77
2023-01-17T14:27:54.847Z,30.92
2023-01-17T14:29:59.075Z,33.65
2023-01-17T14:32:02.088Z,31.50
2023-01-17T14:34:22.811Z,28.55
2023-01-17T14:36:29.613Z,25.20
2023-01-17T14:38:32.990Z,29.40
2023-01-17T14:42:37.116Z,34.33
2023-01-17T14:44:38.808Z,29.00
2023-01-17T14:46:46.586Z,27.58
2023-01-17T14:48:48.322Z,32.33
2023-01-17T14:50:51.195Z,27.77
2023-01-17T14:53:11.098Z,27.00
2023-01-17T14:55:17.470Z,32.10
2023-01-17T14:57:28.191Z,31.05
2023-01-17T14:59:30.400Z,30.52
2023-01-17T15:01:32.806Z,32.53
2023-01-17T15:03:55.361Z,33.50
2023-01-17T15:05:57.626Z,35.47
2023-01-17T15:07:59.764Z,34.53
2023-01-17T15:10:03.878Z,32.28
2023-01-17T15:12:08.563Z,31.92
2023-01-17T15:14:17.367Z,27.25
2023-01-17T15:16:21.257Z,32.90
2023-01-17T15:18:26.956Z,28.50
2023-01-17T15:20:29.095Z,33.97
2023-01-17T15:22:30.898Z,43.28
2023-01-17T15:24:38.515Z,37.37
2023-01-17T15:26:42.479Z,34.47
2023-01-17T15:28:45.147Z,30.33
2023-01-17T15:31:02.124Z,31.33
2023-01-17T15:33:04.204Z,33.72
2023-01-17T15:35:07.988Z,39.20
2023-01-17T15:37:24.657Z,32.25
2023-01-17T15:39:37.700Z,42.63
2023-01-17T15:41:40.653Z,37.13
2023-01-17T15:43:43.607Z,35.33
2023-01-17T15:45:55.585Z,38.25
2023-01-17T15:47:59.245Z,33.78
2023-01-17T15:50:18.721Z,32.72
2023-01-17T15:52:21.870Z,33.40
2023-01-17T15:54:25.596Z,34.80
2023-01-17T15:56:33.685Z,33.08
2023-01-17T15:58:35.959Z,35.22
2023-01-17T16:00:39.141Z,37.58
2023-01-17T16:02:43.399Z,33.63
2023-01-17T16:04:45.914Z,31.33
2023-01-17T16:06:47.632Z,32.75
2023-01-17T16:08:52.986Z,34.50
2023-01-17T16:10:56.753Z,33.17
2023-01-17T16:12:59.262Z,41.55
2023-01-17T16:15:15.430Z,34.33
2023-01-17T16:17:18.963Z,33.38
2023-01-17T16:19:21.722Z,34.58
2023-01-17T16:21:28.378Z,36.95
2023-01-17T16:23:30.078Z,35.40
2023-01-17T16:25:35.152Z,36.67
2023-01-17T16:27:37.111Z,33.60
2023-01-17T16:29:39.114Z,42.72
2023-01-17T16:31:40.941Z,36.28
2023-01-17T16:33:43.013Z,35.47
2023-01-17T16:35:44.675Z,36.90
2023-01-17T16:37:51.356Z,38.03
2023-01-17T16:39:53.293Z,38.78
2023-01-17T16:42:04.276Z,38.33
2023-01-17T16:44:06.294Z,36.88
2023-01-17T16:46:10.006Z,36.63
2023-01-17T16:48:12.611Z,39.53
2023-01-17T16:50:17.074Z,37.70
2023-01-17T16:52:18.795Z,36.90
2023-01-17T16:54:20.896Z,40.87
2023-01-17T16:56:22.710Z,40.03
2023-01-17T16:58:25.112Z,43.45
2023-01-17T17:00:26.987Z,42.92
2023-01-17T17:02:29.093Z,42.58
2023-01-17T17:04:30.806Z,41.17
2023-01-17T17:06:33.041Z,43.00
2023-01-17T17:08:35.928Z,40.95
2023-01-17T17:10:38.024Z,46.17
2023-01-17T17:12:39.922Z,41.58
2023-01-17T17:14:41.960Z,46.80
2023-01-17T17:16:44.787Z,43.75
2023-01-17T17:18:47.780Z,59.45
2023-01-17T17:20:49.577Z,54.95
2023-01-17T17:22:51.751Z,58.85
2023-01-17T17:24:53.421Z,52.80
2023-01-17T17:26:55.525Z,50.05
2023-01-17T17:28:57.734Z,59.95
2023-01-17T17:31:11.069Z,57.05
2023-01-17T17:33:12.790Z,57.55
2023-01-17T17:35:14.856Z,42.77
2023-01-17T17:37:16.936Z,42.85
2023-01-17T17:39:18.943Z,38.90
2023-01-17T17:41:22.296Z,41.20
2023-01-17T17:43:26.482Z,42.92
2023-01-17T17:45:28.265Z,44.45
2023-01-17T17:47:30.647Z,43.63
2023-01-17T17:49:32.328Z,39.30
2023-01-17T17:51:35.410Z,45.00
2023-01-17T17:53:37.109Z,41.50
2023-01-17T17:55:40.997Z,43.87
2023-01-17T17:57:42.785Z,39.63
2023-01-17T17:59:44.842Z,38.67
2023-01-17T18:01:47.185Z,44.90
2023-01-17T18:03:49.472Z,38.63
2023-01-17T18:05:51.485Z,39.05
2023-01-17T18:07:53.864Z,41.03
2023-01-17T18:09:55.659Z,36.35
2023-01-17T18:11:58.097Z,42.07
2023-01-17T18:14:00.918Z,38.85
2023-01-17T18:16:13.585Z,38.58
2023-01-17T18:18:15.973Z,42.83
2023-01-17T18:20:18.008Z,38.67
2023-01-17T18:22:19.705Z,40.33
2023-01-17T18:24:22.832Z,37.60
2023-01-17T18:26:25.972Z,40.10
2023-01-17T18:28:27.630Z,38.55
2023-01-17T18:30:35.147Z,40.37
2023-01-17T18:32:38.903Z,44.88
2023-01-17T18:34:42.362Z,38.35
2023-01-17T18:36:44.243Z,37.25
2023-01-17T18:38:47.426Z,36.45
2023-01-17T18:40:49.082Z,38.67
2023-01-17T18:42:51.090Z,44.50
2023-01-17T18:44:52.795Z,44.22
2023-01-17T18:46:54.844Z,38.17
2023-01-17T18:48:57.274Z,41.25
2023-01-17T18:51:00.145Z,38.88
2023-01-17T18:53:02.210Z,39.30
2023-01-17T18:55:04.071Z,36.55
2023-01-17T18:57:06.124Z,35.08
2023-01-17T18:59:09.646Z,41.83
2023-01-17T19:01:25.623Z,40.45
2023-01-17T19:03:31.621Z,36.60
2023-01-17T19:05:35.686Z,37.70
2023-01-17T19:07:37.372Z,40.08
2023-01-17T19:09:39.460Z,41.77
2023-01-17T19:11:43.158Z,37.63
2023-01-17T19:13:45.222Z,39.20
2023-01-17T19:15:46.949Z,45.78
2023-01-17T19:17:48.976Z,45.53
2023-01-17T19:19:50.692Z,43.22
2023-01-17T19:21:52.930Z,42.33
2023-01-17T19:23:55.614Z,41.72
2023-01-17T19:25:57.336Z,46.88
2023-01-17T19:27:59.661Z,40.70
2023-01-17T19:30:02.034Z,41.07
2023-01-17T19:32:04.107Z,40.85
2023-01-17T19:34:05.812Z,39.38
2023-01-17T19:36:13.531Z,41.73
2023-01-17T19:38:15.241Z,47.42
2023-01-17T19:40:18.488Z,43.03
2023-01-17T19:44:22.512Z,45.63
2023-01-17T19:46:26.303Z,50.40
2023-01-17T19:48:28.007Z,47.50
2023-01-17T19:50:30.050Z,43.37
2023-01-17T19:52:31.835Z,54.22
2023-01-17T19:54:33.888Z,45.28
2023-01-17T19:56:35.673Z,45.63
2023-01-17T19:58:38.180Z,52.40
2023-01-17T20:00:46.441Z,46.33
2023-01-17T20:02:48.976Z,53.45
2023-01-17T20:04:50.749Z,52.58
2023-01-17T20:06:53.158Z,46.55
2023-01-17T20:08:54.840Z,48.57
2023-01-17T20:11:00.960Z,51.77
2023-01-17T20:13:04.725Z,51.13
2023-01-17T20:15:07.116Z,49.50
2023-01-17T20:17:08.794Z,55.25
2023-01-17T20:19:10.868Z,52.77
2023-01-17T20:21:19.611Z,53.03
2023-01-17T20:23:21.709Z,52.35
2023-01-17T20:25:23.630Z,52.40
2023-01-17T20:27:26.656Z,52.78
2023-01-17T20:29:28.480Z,56.45
2023-01-17T20:31:32.224Z,57.97
2023-01-17T20:33:35.215Z,52.63
2023-01-17T20:37:39.437Z,71.55
2023-01-17T20:39:41.263Z,61.28
2023-01-17T20:41:45.587Z,56.85
2023-01-17T20:43:48.217Z,57.97
2023-01-17T20:45:56.107Z,68.88
2023-01-17T20:47:58.565Z,69.35
2023-01-17T20:50:03.185Z,79.45
2023-01-17T20:52:06.294Z,71.55
2023-01-17T20:54:12.993Z,71.28
2023-01-17T20:56:15.525Z,72.35
2023-01-17T20:58:17.194Z,70.93
2023-01-17T21:00:19.520Z,66.80
2023-01-17T21:02:21.273Z,67.50
2023-01-17T21:04:25.711Z,65.90
2023-01-17T21:06:27.676Z,64.07
2023-01-17T21:08:30.023Z,65.78
2023-01-17T21:10:32.067Z,66.10
2023-01-17T21:12:34.091Z,68.03
2023-01-17T21:14:37.672Z,72.53
2023-01-17T21:16:39.725Z,64.65
2023-01-17T21:18:42.563Z,64.78
2023-01-17T21:20:44.375Z,66.30
2023-01-17T21:22:47.128Z,70.38
2023-01-17T21:24:49.215Z,62.85
2023-01-17T21:26:52.494Z,61.92
2023-01-17T21:28:54.316Z,67.40
2023-01-17T21:30:56.910Z,68.70
2023-01-17T21:32:58.819Z,68.05
2023-01-17T21:35:01.424Z,66.15
2023-01-17T21:37:03.307Z,70.30
2023-01-17T21:39:11.584Z,73.13
2023-01-17T21:41:14.583Z,67.18
2023-01-17T21:45:18.364Z,60.45
2023-01-17T21:47:20.036Z,62.03
2023-01-17T21:49:22.191Z,63.77
2023-01-17T21:51:24.354Z,65.20
2023-01-17T21:53:27.708Z,64.43
2023-01-17T21:55:48.694Z,68.78
2023-01-17T21:58:09.075Z,63.50
2023-01-17T22:00:15.694Z,69.07
2023-01-17T22:02:17.475Z,62.22
2023-01-17T22:04:20.212Z,61.53
2023-01-17T22:06:22.711Z,58.95
2023-01-17T22:08:24.953Z,64.63
2023-01-17T22:10:26.756Z,62.80
2023-01-17T22:12:29.069Z,61.60
2023-01-17T22:14:30.830Z,72.35
2023-01-17T22:16:33.011Z,63.47
2023-01-17T22:18:39.111Z,65.07
2023-01-17T22:20:41.651Z,64.78
2023-01-17T22:22:43.331Z,65.05
2023-01-17T22:24:45.350Z,63.63
2023-01-17T22:26:47.091Z,59.53
2023-01-17T22:28:49.123Z,64.80
2023-01-17T22:30:50.824Z,62.03
2023-01-17T22:32:52.885Z,65.70
2023-01-17T22:34:54.540Z,65.07
2023-01-17T22:36:56.556Z,65.80
2023-01-17T22:38:58.265Z,64.30
2023-01-17T22:41:08.098Z,64.87
2023-01-17T22:43:10.103Z,62.50
2023-01-17T22:45:12.326Z,68.88
2023-01-17T22:47:14.108Z,69.55
2023-01-17T22:49:16.921Z,68.55
2023-01-17T22:51:19.444Z,67.00
2023-01-17T22:53:21.540Z,75.40
2023-01-17T22:55:23.209Z,72.72
2023-01-17T22:57:25.262Z,69.47
2023-01-17T22:59:27.043Z,72.72
2023-01-17T23:01:30.725Z,71.65
2023-01-17T23:03:33.173Z,74.65
2023-01-17T23:05:34.934Z,71.00
2023-01-17T23:07:43.573Z,75.78
2023-01-17T23:09:45.276Z,74.40
2023-01-17T23:11:50.884Z,74.87
2023-01-17T23:13:52.993Z,76.00
2023-01-17T23:16:13.428Z,73.65
2023-01-17T23:18:34.414Z,72.15
2023-01-17T23:20:36.350Z,81.47
2023-01-17T23:22:38.543Z,77.40
2023-01-17T23:24:43.291Z,73.22
2023-01-17T23:27:04.981Z,75.63
2023-01-17T23:29:06.996Z,77.53
2023-01-17T23:31:10.993Z,76.03
2023-01-17T23:33:14.543Z,78.18
2023-01-17T23:35:16.837Z,82.97
2023-01-17T23:37:18.771Z,82.50
2023-01-17T23:39:20.786Z,76.72
2023-01-17T23:41:54.780Z,82.72
2023-01-17T23:43:57.606Z,85.75
2023-01-17T23:45:59.494Z,79.65
2023-01-17T23:48:01.894Z,77.50
2023-01-17T23:52:06.129Z,81.85
2023-01-17T23:54:09.044Z,80.60
2023-01-17T23:56:10.773Z,83.97
2023-01-17T23:58:12.860Z,84.70
